Αρχική σελίδα
METAR-TAF:

METAR-TAF

Αεροδρόμια :

Τεχεράνη, Ιράν

γεωγραφικό πλάτος: 35-41N, γεωγραφικό μήκος: 051-21E, υψόμετρο: 1204 μ

Παρών καιρός

Η αναφορά έγινε 21 λεπτά πριν, στις 00:30 UTC
Ήπιος άνεμος
Θερμοκρασία 1°C
Υγρασία 51%
Πίεση 1018 hPa
Ορατότητα 10 χλμ και άνω
Δεν υπάρχουν νέφη με βάση κάτω από τα 1500 μ. και δεν υπάρχουν νέφη σωρειτομελανίτες.

METAR: OIII 220030Z 00000KT CAVOK 01/M08 Q1017 A3005

Χρόνος: 04:21 (00:51 UTC)

Πρόγνωση Καιρού

Η αναφορά έγινε 1 ώρα και 51 λεπτά πριν, στις 23:00 UTC
Η πρόγνωση ισχύει από τις 22 στις 00 UTC έως τις 23 στις 06 UTC
Άνεμος 8 kt από
Ορατότητα: 7000 μ

TAF: OIII 212300Z 2200/2306 32008KT 7000 NSC

Μετεωρολογικές αναφορές και προγνώσεις για περισσότερα από 4000 αεροδρόμια (δελτία METAR και TAF).

Οι διαθέσιμοι σταθμοί απεικονίζονται στο χάρτη με κίτρινες και κόκκινες κουκκίδες.

Μετακινήστε το ποντίκι πάνω από τις κουκκίδες για να δείτε το όνομα του σταθμού.

Στη συνέχεια, κάντε κλικ για να δείτε τις μετεωρολογικές αναφορές και τις προγνώσεις καιρού.

Για να αλλάξετε το χάρτη: κάντε κλικ στα πράσινα κουμπιά με τον μαύρο σταυρό για να ζουμάρετε, στο πράσινο κουμπί με την παύλα για να αφαιρέσετε το ζουμ ή στα πράσινα βέλη για να αντιπαραβάλλετε χάρτες.


METAR-TAF: